Time,TemperatureF,DewpointF,PressureIn,WindDirection,WindDirectionDegrees,WindSpeedMPH,WindSpeedGustMPH,Humidity,HourlyPrecipIn,Conditions,Clouds,dailyrainin,SolarRadiationWatts/m^2,SoftwareType,DateUTC
2013-04-18 00:02:00,53.0,52.2,29.77,North,5,11.5,11.5,97,0.07,RA,,0.02,0.0,WeatherDisplay:10.37,2013-04-18 05:02:00,
2013-04-18 00:07:00,52.0,50.9,29.76,NW,325,17.3,17.3,96,0.10,RA,,0.05,0.0,WeatherDisplay:10.37,2013-04-18 05:07:00,
2013-04-18 00:12:00,51.2,50.4,29.77,North,355,13.8,13.8,97,0.11,RA,,0.06,0.0,WeatherDisplay:10.37,2013-04-18 05:12:00,
2013-04-18 00:17:00,50.7,49.9,29.77,NNW,329,17.3,17.3,97,0.11,RA,,0.07,0.0,WeatherDisplay:10.37,2013-04-18 05:17:00,
2013-04-18 00:22:00,50.5,49.7,29.78,NNW,334,17.3,17.3,97,0.13,RA,,0.10,0.0,WeatherDisplay:10.37,2013-04-18 05:22:00,
2013-04-18 00:27:00,50.5,49.7,29.77,NW,313,11.5,11.5,97,0.16,RA,,0.14,0.0,WeatherDisplay:10.37,2013-04-18 05:27:00,
2013-04-18 00:32:00,50.5,49.7,29.76,NE,54,5.8,5.8,97,0.17,RA,,0.15,0.0,WeatherDisplay:10.37,2013-04-18 05:32:00,
2013-04-18 00:37:00,50.7,49.9,29.75,NNW,328,11.5,11.5,97,0.17,RA,,0.16,0.0,WeatherDisplay:10.37,2013-04-18 05:37:00,
2013-04-18 00:42:00,50.8,50.0,29.75,NNW,347,10.4,10.4,97,0.17,RA,,0.17,0.0,WeatherDisplay:10.37,2013-04-18 05:42:00,
2013-04-18 00:47:00,51.0,50.5,29.76,North,360,7.0,7.0,98,0.18,RA,,0.18,0.0,WeatherDisplay:10.37,2013-04-18 05:47:00,
2013-04-18 00:52:00,51.3,50.8,29.76,NNW,348,10.4,10.4,98,0.19,RA,,0.19,0.0,WeatherDisplay:10.37,2013-04-18 05:52:00,
2013-04-18 00:57:00,51.5,51.0,29.75,North,360,9.2,9.2,98,0.20,RA,,0.20,0.0,WeatherDisplay:10.37,2013-04-18 05:57:00,
2013-04-18 01:02:00,51.8,51.3,29.75,North,5,9.0,9.0,98,0.18,RA,,0.20,0.0,WeatherDisplay:10.37,2013-04-18 06:02:00,
2013-04-18 01:07:00,52.0,51.5,29.75,NE,34,9.2,9.2,98,0.16,RA,,0.21,0.0,WeatherDisplay:10.37,2013-04-18 06:07:00,
2013-04-18 01:12:00,52.2,51.7,29.75,NNE,22,6.0,6.0,98,0.16,RA,,0.22,0.0,WeatherDisplay:10.37,2013-04-18 06:12:00,
2013-04-18 01:17:00,52.4,51.9,29.73,NNE,32,10.4,10.4,98,0.17,RA,,0.25,0.0,WeatherDisplay:10.37,2013-04-18 06:17:00,
2013-04-18 01:22:00,52.5,52.0,29.72,NE,42,8.1,8.1,98,0.17,RA,,0.27,0.0,WeatherDisplay:10.37,2013-04-18 06:22:00,
2013-04-18 01:27:00,52.5,52.0,29.72,NE,44,6.9,6.9,98,0.17,RA,,0.31,0.0,WeatherDisplay:10.37,2013-04-18 06:27:00,
2013-04-18 01:32:00,52.6,52.1,29.71,NE,35,16.1,16.1,98,0.19,RA,,0.34,0.0,WeatherDisplay:10.37,2013-04-18 06:32:00,
2013-04-18 01:37:00,52.7,52.2,29.70,NE,46,11.5,11.5,98,0.21,RA,,0.37,0.0,WeatherDisplay:10.37,2013-04-18 06:37:00,
2013-04-18 01:42:00,52.6,52.1,29.71,East,90,5.8,5.8,98,0.22,RA,,0.39,0.0,WeatherDisplay:10.37,2013-04-18 06:42:00,
2013-04-18 01:47:00,52.6,52.1,29.68,ENE,68,11.5,11.5,98,0.23,RA,,0.42,0.0,WeatherDisplay:10.37,2013-04-18 06:47:00,
2013-04-18 01:52:00,52.5,52.0,29.67,ENE,61,13.8,13.8,98,0.25,RA,,0.44,0.0,WeatherDisplay:10.37,2013-04-18 06:52:00,
2013-04-18 01:57:00,52.6,52.1,29.67,ENE,61,10.4,10.4,98,0.26,RA,,0.46,0.0,WeatherDisplay:10.37,2013-04-18 06:57:00,
2013-04-18 02:02:00,52.7,52.2,29.68,NE,54,8.1,8.1,98,0.28,RA,,0.48,0.0,WeatherDisplay:10.37,2013-04-18 07:02:00,
2013-04-18 02:07:00,53.0,52.5,29.69,ENE,68,3.5,3.5,98,0.29,RA,,0.50,0.0,WeatherDisplay:10.37,2013-04-18 07:07:00,
2013-04-18 02:12:00,53.2,52.7,29.69,ENE,69,5.8,5.8,98,0.29,RA,,0.51,0.0,WeatherDisplay:10.37,2013-04-18 07:12:00,
2013-04-18 02:17:00,53.3,52.8,29.69,ENE,73,10.4,10.4,98,0.29,RA,,0.53,0.0,WeatherDisplay:10.37,2013-04-18 07:17:00,
2013-04-18 02:22:00,53.3,52.8,29.70,ENE,67,3.5,3.5,98,0.28,RA,,0.55,0.0,WeatherDisplay:10.37,2013-04-18 07:22:00,
2013-04-18 02:27:00,53.4,52.8,29.72,ENE,67,0.0,0.0,98,0.26,RA,,0.58,0.0,WeatherDisplay:10.37,2013-04-18 07:27:00,
2013-04-18 02:32:00,53.5,52.9,29.70,ENE,61,4.6,4.6,98,0.26,RA,,0.60,0.0,WeatherDisplay:10.37,2013-04-18 07:32:00,
2013-04-18 02:37:00,53.5,52.9,29.70,ENE,63,1.2,0.0,98,0.25,RA,,0.63,0.0,WeatherDisplay:10.37,2013-04-18 07:37:00,
2013-04-18 02:42:00,53.4,52.8,29.70,East,101,0.0,0.0,98,0.26,RA,,0.66,0.0,WeatherDisplay:10.37,2013-04-18 07:42:00,
2013-04-18 02:47:00,53.2,52.7,29.69,ENE,78,2.0,2.1,98,0.27,RA,,0.69,0.0,WeatherDisplay:10.37,2013-04-18 07:47:00,
2013-04-18 02:52:00,53.0,52.5,29.68,East,82,5.8,5.8,98,0.28,RA,,0.72,0.0,WeatherDisplay:10.37,2013-04-18 07:52:00,
2013-04-18 02:57:00,52.9,52.4,29.67,East,82,0.0,0.5,98,0.28,RA,,0.74,0.0,WeatherDisplay:10.37,2013-04-18 07:57:00,
2013-04-18 03:02:00,52.9,52.4,29.65,ENE,63,5.8,5.8,98,0.27,RA,,0.75,0.0,WeatherDisplay:10.37,2013-04-18 08:02:00,
2013-04-18 03:07:00,52.9,52.4,29.63,ENE,74,9.2,9.2,98,0.26,RA,,0.76,0.0,WeatherDisplay:10.37,2013-04-18 08:07:00,
2013-04-18 03:12:00,52.9,52.4,29.63,East,81,6.9,6.9,98,0.26,RA,,0.77,0.0,WeatherDisplay:10.37,2013-04-18 08:12:00,
2013-04-18 03:17:00,52.9,52.4,29.65,East,86,1.2,3.4,98,0.25,RA,,0.78,0.0,WeatherDisplay:10.37,2013-04-18 08:17:00,
2013-04-18 03:22:00,52.9,52.4,29.66,East,82,4.6,4.6,98,0.23,RA,,0.78,0.0,WeatherDisplay:10.37,2013-04-18 08:22:00,
2013-04-18 03:28:00,52.9,52.4,29.65,East,88,5.8,6.2,98,0.22,RA,,0.80,0.0,WeatherDisplay:10.37,2013-04-18 08:28:00,
2013-04-18 03:33:00,52.9,52.4,29.64,ENE,75,6.9,6.9,98,0.21,RA,,0.81,0.0,WeatherDisplay:10.37,2013-04-18 08:33:00,
2013-04-18 03:38:00,53.0,52.5,29.64,ENE,70,4.6,4.6,98,0.20,RA,,0.83,0.0,WeatherDisplay:10.37,2013-04-18 08:38:00,
2013-04-18 03:43:00,53.1,52.6,29.64,East,83,3.5,3.5,98,0.19,RA,,0.85,0.0,WeatherDisplay:10.37,2013-04-18 08:43:00,
2013-04-18 03:48:00,53.4,52.8,29.64,NE,56,3.5,3.5,98,0.19,RA,,0.88,0.0,WeatherDisplay:10.37,2013-04-18 08:48:00,
2013-04-18 03:53:00,53.6,53.0,29.63,NE,55,3.5,3.7,98,0.18,RA,,0.90,0.0,WeatherDisplay:10.37,2013-04-18 08:53:00,
2013-04-18 03:58:00,53.6,53.0,29.61,ENE,74,10.4,10.4,98,0.18,RA,,0.92,0.0,WeatherDisplay:10.37,2013-04-18 08:58:00,
2013-04-18 04:03:00,53.8,53.2,29.58,ENE,78,12.7,12.7,98,0.19,RA,,0.94,0.0,WeatherDisplay:10.37,2013-04-18 09:03:00,
2013-04-18 04:08:00,54.0,53.4,29.57,NE,53,12.7,12.7,98,0.18,RA,,0.94,0.0,WeatherDisplay:10.37,2013-04-18 09:08:00,
2013-04-18 04:13:00,54.3,53.7,29.58,ENE,64,10.4,10.4,98,0.18,RA,,0.95,0.0,WeatherDisplay:10.37,2013-04-18 09:13:00,
2013-04-18 04:18:00,54.3,53.7,29.59,ENE,67,3.5,3.5,98,0.18,RA,,0.96,0.0,WeatherDisplay:10.37,2013-04-18 09:18:00,
2013-04-18 04:23:00,54.5,53.9,29.59,NE,54,3.5,3.5,98,0.19,RA,,0.97,0.0,WeatherDisplay:10.37,2013-04-18 09:23:00,
2013-04-18 04:28:00,54.7,54.1,29.58,NE,38,4.6,4.6,98,0.19,RA,,0.99,0.0,WeatherDisplay:10.37,2013-04-18 09:28:00,
2013-04-18 04:33:00,54.8,54.5,29.59,ENE,58,0.0,0.0,99,0.20,RA,,1.01,0.0,WeatherDisplay:10.37,2013-04-18 09:33:00,
2013-04-18 04:38:00,54.9,54.3,29.59,ENE,58,0.0,0.0,98,0.19,RA,,1.02,0.0,WeatherDisplay:10.37,2013-04-18 09:38:00,
2013-04-18 04:43:00,54.9,54.3,29.58,ENE,63,6.0,6.0,98,0.18,RA,,1.03,0.0,WeatherDisplay:10.37,2013-04-18 09:43:00,
2013-04-18 04:48:00,55.0,54.4,29.58,ENE,74,4.6,4.6,98,0.16,RA,,1.04,0.0,WeatherDisplay:10.37,2013-04-18 09:48:00,
2013-04-18 04:53:00,55.1,54.5,29.58,ENE,74,6.9,6.9,98,0.15,RA,,1.05,0.0,WeatherDisplay:10.37,2013-04-18 09:53:00,
2013-04-18 04:58:00,55.1,54.5,29.58,East,86,5.8,5.8,98,0.15,RA,,1.07,0.0,WeatherDisplay:10.37,2013-04-18 09:58:00,
2013-04-18 05:03:00,55.3,54.7,29.58,ENE,74,4.6,4.6,98,0.15,RA,,1.09,0.0,WeatherDisplay:10.37,2013-04-18 10:03:00,
2013-04-18 05:08:00,55.4,54.8,29.58,ENE,76,3.5,3.5,98,0.17,RA,,1.11,0.0,WeatherDisplay:10.37,2013-04-18 10:08:00,
2013-04-18 05:13:00,55.4,54.8,29.58,East,80,0.0,0.0,98,0.17,RA,,1.12,0.0,WeatherDisplay:10.37,2013-04-18 10:13:00,
2013-04-18 05:18:00,55.4,54.8,29.58,East,92,2.3,2.3,98,0.17,RA,,1.13,0.0,WeatherDisplay:10.37,2013-04-18 10:18:00,
2013-04-18 05:23:00,55.3,54.7,29.57,East,91,0.0,0.0,98,0.18,RA,,1.15,0.0,WeatherDisplay:10.37,2013-04-18 10:23:00,
2013-04-18 05:28:00,55.3,54.7,29.57,East,101,0.0,0.0,98,0.17,RA,,1.16,0.0,WeatherDisplay:10.37,2013-04-18 10:28:00,
2013-04-18 05:33:00,55.4,55.1,29.56,East,92,3.5,3.5,99,0.15,RA,,1.16,0.0,WeatherDisplay:10.37,2013-04-18 10:33:00,
2013-04-18 05:38:00,55.5,55.2,29.57,East,100,3.5,3.5,99,0.16,RA,,1.18,0.0,WeatherDisplay:10.37,2013-04-18 10:38:00,
2013-04-18 05:43:00,55.6,55.3,29.58,East,99,0.0,0.0,99,0.16,RA,,1.19,0.0,WeatherDisplay:10.37,2013-04-18 10:43:00,
2013-04-18 05:48:00,55.7,55.4,29.59,East,99,0.0,0.0,99,0.17,RA,,1.21,0.0,WeatherDisplay:10.37,2013-04-18 10:48:00,
2013-04-18 05:53:00,55.7,55.4,29.54,ENE,69,11.5,11.5,99,0.18,RA,,1.24,0.0,WeatherDisplay:10.37,2013-04-18 10:53:00,
2013-04-18 05:58:00,55.8,55.5,29.53,ENE,68,10.4,10.4,99,0.19,RA,,1.26,0.0,WeatherDisplay:10.37,2013-04-18 10:58:00,
2013-04-18 06:03:00,55.9,55.3,29.55,East,79,10.4,10.4,98,0.18,RA,,1.27,0.0,WeatherDisplay:10.37,2013-04-18 11:03:00,
2013-04-18 06:08:00,55.9,55.3,29.54,East,86,3.5,3.5,98,0.16,RA,,1.27,0.0,WeatherDisplay:10.37,2013-04-18 11:08:00,
2013-04-18 06:13:00,55.9,55.3,29.54,ENE,59,9.2,9.2,98,0.16,RA,,1.28,0.0,WeatherDisplay:10.37,2013-04-18 11:13:00,
2013-04-18 06:18:00,55.9,55.3,29.55,ENE,67,6.9,6.9,98,0.16,RA,,1.29,0.0,WeatherDisplay:10.37,2013-04-18 11:18:00,
2013-04-18 06:23:00,55.9,55.3,29.55,ENE,77,3.5,3.5,98,0.14,RA,,1.29,0.0,WeatherDisplay:10.37,2013-04-18 11:23:00,
2013-04-18 06:28:00,55.9,55.3,29.55,East,88,5.8,5.8,98,0.13,CLR,,1.29,0.0,WeatherDisplay:10.37,2013-04-18 11:28:00,
2013-04-18 06:33:00,55.8,55.2,29.55,ENE,66,9.0,9.0,98,0.13,OVC,,1.29,0.0,WeatherDisplay:10.37,2013-04-18 11:33:00,
2013-04-18 06:38:00,55.8,55.2,29.55,ENE,71,5.8,5.8,98,0.11,OVC,,1.29,0.0,WeatherDisplay:10.37,2013-04-18 11:38:00,
2013-04-18 06:43:00,55.9,55.3,29.56,East,80,3.5,3.5,98,0.11,RA,,1.30,0.0,WeatherDisplay:10.37,2013-04-18 11:43:00,
2013-04-18 06:48:00,55.8,55.2,29.56,ENE,62,9.2,9.2,98,0.09,RA,,1.30,0.0,WeatherDisplay:10.37,2013-04-18 11:48:00,
2013-04-18 06:53:00,55.8,55.2,29.57,East,95,0.0,0.1,98,0.08,RA,,1.31,0.0,WeatherDisplay:10.37,2013-04-18 11:53:00,
2013-04-18 06:58:00,55.8,55.2,29.58,East,91,0.0,0.0,98,0.06,RA,,1.32,0.0,WeatherDisplay:10.37,2013-04-18 11:58:00,
2013-04-18 07:03:00,55.8,55.2,29.57,East,86,0.0,0.0,98,0.07,RA,,1.34,0.0,WeatherDisplay:10.37,2013-04-18 12:03:00,
2013-04-18 07:08:00,55.8,55.5,29.58,East,86,0.0,0.0,99,0.09,RA,,1.36,0.0,WeatherDisplay:10.37,2013-04-18 12:08:00,
2013-04-18 07:13:00,55.8,55.5,29.58,East,86,0.0,0.0,99,0.10,RA,,1.38,5.0,WeatherDisplay:10.37,2013-04-18 12:13:00,
2013-04-18 07:18:00,55.8,55.5,29.58,East,86,0.0,0.0,99,0.10,RA,,1.39,5.0,WeatherDisplay:10.37,2013-04-18 12:18:00,
2013-04-18 07:24:00,55.7,55.4,29.58,East,86,0.0,0.0,99,0.11,RA,,1.41,5.0,WeatherDisplay:10.37,2013-04-18 12:24:00,
2013-04-18 07:29:00,55.7,55.4,29.58,East,86,0.0,0.0,99,0.13,RA,,1.42,5.0,WeatherDisplay:10.37,2013-04-18 12:29:00,
2013-04-18 07:34:00,55.7,55.4,29.58,East,86,0.0,0.0,99,0.14,RA,,1.43,5.0,WeatherDisplay:10.37,2013-04-18 12:34:00,
2013-04-18 07:39:00,55.6,55.3,29.57,East,86,0.0,0.0,99,0.15,RA,,1.44,7.0,WeatherDisplay:10.37,2013-04-18 12:39:00,
2013-04-18 07:44:00,55.6,55.3,29.57,East,86,0.0,0.0,99,0.15,RA,,1.45,7.0,WeatherDisplay:10.37,2013-04-18 12:44:00,
2013-04-18 07:49:00,55.6,55.3,29.57,East,86,1.2,0.0,99,0.15,RA,,1.45,9.0,WeatherDisplay:10.37,2013-04-18 12:49:00,
2013-04-18 07:54:00,55.6,55.3,29.55,East,86,0.0,0.0,99,0.15,RA,,1.46,11.0,WeatherDisplay:10.37,2013-04-18 12:54:00,
2013-04-18 07:59:00,55.6,55.3,29.54,ENE,78,2.3,2.3,99,0.14,RA,,1.46,14.0,WeatherDisplay:10.37,2013-04-18 12:59:00,
2013-04-18 08:04:00,55.5,55.2,29.52,East,98,3.5,3.5,99,0.12,OVC,,1.46,21.0,WeatherDisplay:10.37,2013-04-18 13:04:00,
2013-04-18 08:09:00,55.5,55.2,29.50,East,88,4.6,4.6,99,0.11,RA,,1.47,25.0,WeatherDisplay:10.37,2013-04-18 13:09:00,
2013-04-18 08:14:00,55.6,55.3,29.52,East,82,0.0,0.0,99,0.09,RA,,1.47,37.0,WeatherDisplay:10.37,2013-04-18 13:14:00,
2013-04-18 08:19:00,55.7,55.4,29.53,East,82,0.0,0.0,99,0.08,BKN,,1.47,51.0,WeatherDisplay:10.37,2013-04-18 13:19:00,
2013-04-18 08:24:00,55.8,55.5,29.52,ESE,114,0.0,0.0,99,0.06,BKN,,1.47,47.0,WeatherDisplay:10.37,2013-04-18 13:24:00,
2013-04-18 08:29:00,55.9,55.6,29.50,ESE,114,0.0,0.0,99,0.05,BKN,,1.47,42.0,WeatherDisplay:10.37,2013-04-18 13:29:00,
2013-04-18 08:34:00,56.0,55.7,29.52,ESE,118,0.0,0.0,99,0.04,BKN,,1.47,53.0,WeatherDisplay:10.37,2013-04-18 13:34:00,
2013-04-18 08:39:00,56.1,55.8,29.53,SSE,148,0.0,0.0,99,0.03,BKN,,1.47,72.0,WeatherDisplay:10.37,2013-04-18 13:39:00,
2013-04-18 08:44:00,56.3,56.0,29.54,SSE,148,1.0,0.0,99,0.02,BKN,,1.47,95.0,WeatherDisplay:10.37,2013-04-18 13:44:00,
2013-04-18 08:49:00,56.4,56.1,29.54,SE,141,4.6,4.6,99,0.02,BKN,,1.47,114.0,WeatherDisplay:10.37,2013-04-18 13:49:00,
2013-04-18 08:54:00,56.6,56.3,29.55,SE,146,5.8,5.8,99,0.01,BKN,,1.47,100.0,WeatherDisplay:10.37,2013-04-18 13:54:00,
2013-04-18 08:59:00,56.6,56.3,29.55,SSE,161,1.2,1.2,99,0.01,BKN,,1.47,109.0,WeatherDisplay:10.37,2013-04-18 13:59:00,
2013-04-18 09:04:00,56.7,56.4,29.56,SSE,161,0.0,0.0,99,0.01,BKN,,1.47,141.0,WeatherDisplay:10.37,2013-04-18 14:04:00,
2013-04-18 09:09:00,56.9,56.6,29.57,SSE,161,0.0,0.0,99,0.00,BKN,,1.47,155.0,WeatherDisplay:10.37,2013-04-18 14:09:00,
2013-04-18 09:14:00,56.9,56.6,29.57,SSE,163,0.0,0.0,99,0.00,BKN,,1.47,137.0,WeatherDisplay:10.37,2013-04-18 14:14:00,
2013-04-18 09:19:00,57.0,56.7,29.56,SSE,163,0.0,0.0,99,0.00,BKN,,1.47,127.0,WeatherDisplay:10.37,2013-04-18 14:19:00,
2013-04-18 09:24:00,57.1,56.8,29.56,SSE,156,6.0,6.0,99,0.00,BKN,,1.47,100.0,WeatherDisplay:10.37,2013-04-18 14:24:00,
2013-04-18 09:29:00,57.2,56.9,29.53,SE,142,3.5,3.5,99,0.00,BKN,,1.47,128.0,WeatherDisplay:10.37,2013-04-18 14:29:00,
2013-04-18 09:34:00,57.2,56.9,29.53,SE,142,0.0,0.0,99,0.00,BKN,,1.47,185.0,WeatherDisplay:10.37,2013-04-18 14:34:00,
2013-04-18 09:39:00,57.4,57.1,29.53,SE,142,0.0,0.0,99,0.00,BKN,,1.47,223.0,WeatherDisplay:10.37,2013-04-18 14:39:00,
2013-04-18 09:44:00,57.5,57.2,29.53,SE,142,0.0,0.0,99,0.00,BKN,,1.47,204.0,WeatherDisplay:10.37,2013-04-18 14:44:00,
2013-04-18 09:49:00,57.7,57.4,29.53,SE,142,0.0,0.0,99,0.00,BKN,,1.47,135.0,WeatherDisplay:10.37,2013-04-18 14:49:00,
2013-04-18 09:54:00,57.9,57.6,29.52,SE,142,0.0,0.0,99,0.00,BKN,,1.47,343.0,WeatherDisplay:10.37,2013-04-18 14:54:00,
2013-04-18 09:59:00,58.2,57.9,29.52,SE,142,0.0,0.0,99,0.00,BKN,,1.47,271.0,WeatherDisplay:10.37,2013-04-18 14:59:00,
2013-04-18 10:04:00,58.6,58.3,29.51,SSE,156,0.0,0.0,99,0.00,BKN,,1.47,260.0,WeatherDisplay:10.37,2013-04-18 15:04:00,
2013-04-18 10:09:00,58.7,58.4,29.52,SSE,156,8.1,8.1,99,0.00,BKN,,1.47,202.0,WeatherDisplay:10.37,2013-04-18 15:09:00,
2013-04-18 10:14:00,58.6,58.3,29.53,SE,144,1.2,0.0,99,0.00,BKN,,1.47,223.0,WeatherDisplay:10.37,2013-04-18 15:14:00,
2013-04-18 10:19:00,58.9,58.6,29.53,South,185,13.8,13.8,99,0.00,BKN,,1.47,204.0,WeatherDisplay:10.37,2013-04-18 15:19:00,
2013-04-18 10:24:00,59.0,58.7,29.55,SSE,157,11.5,11.5,99,0.00,BKN,,1.47,190.0,WeatherDisplay:10.37,2013-04-18 15:24:00,
2013-04-18 10:29:00,58.7,58.4,29.55,South,188,12.7,12.7,99,0.00,BKN,,1.47,139.0,WeatherDisplay:10.37,2013-04-18 15:29:00,
2013-04-18 10:34:00,58.4,58.1,29.56,South,178,12.7,12.7,99,0.00,BKN,,1.47,62.0,WeatherDisplay:10.37,2013-04-18 15:34:00,
2013-04-18 10:39:00,58.1,57.8,29.56,SSE,165,10.4,10.4,99,0.00,BKN,,1.47,51.0,WeatherDisplay:10.37,2013-04-18 15:39:00,
2013-04-18 10:44:00,58.0,57.7,29.55,South,184,11.5,11.5,99,0.00,BKN,,1.47,76.0,WeatherDisplay:10.37,2013-04-18 15:44:00,
2013-04-18 10:49:00,58.0,57.7,29.54,SSE,155,9.2,9.2,99,0.00,BKN,,1.47,93.0,WeatherDisplay:10.37,2013-04-18 15:49:00,
2013-04-18 10:54:00,58.0,57.7,29.54,South,169,9.2,9.2,99,0.00,BKN,,1.47,67.0,WeatherDisplay:10.37,2013-04-18 15:54:00,
2013-04-18 10:59:00,58.0,57.7,29.54,SSE,163,10.4,10.4,99,0.00,BKN,,1.47,76.0,WeatherDisplay:10.37,2013-04-18 15:59:00,
2013-04-18 11:04:00,58.0,57.7,29.54,SSE,165,4.6,4.6,99,0.00,BKN,,1.47,100.0,WeatherDisplay:10.37,2013-04-18 16:04:00,
2013-04-18 11:09:00,58.0,57.7,29.54,SSW,202,5.0,5.0,99,0.01,RA,,1.48,88.0,WeatherDisplay:10.37,2013-04-18 16:09:00,
2013-04-18 11:14:00,58.1,57.8,29.54,South,181,12.7,12.7,99,0.01,RA,,1.48,90.0,WeatherDisplay:10.37,2013-04-18 16:14:00,
2013-04-18 11:19:00,58.1,57.8,29.53,South,182,0.0,0.0,99,0.01,BKN,,1.48,93.0,WeatherDisplay:10.37,2013-04-18 16:19:00,
2013-04-18 11:24:00,58.2,57.9,29.50,SE,126,12.7,12.7,99,0.02,RA,,1.49,125.0,WeatherDisplay:10.37,2013-04-18 16:24:00,
2013-04-18 11:29:00,58.3,58.0,29.44,ESE,103,11.5,11.5,99,0.02,RA,,1.49,142.0,WeatherDisplay:10.37,2013-04-18 16:29:00,
2013-04-18 11:34:00,58.5,58.2,29.44,SE,140,17.3,17.3,99,0.02,BKN,,1.49,151.0,WeatherDisplay:10.37,2013-04-18 16:34:00,
2013-04-18 11:39:00,58.7,58.4,29.43,SE,136,3.5,3.5,99,0.02,BKN,,1.49,158.0,WeatherDisplay:10.37,2013-04-18 16:39:00,
2013-04-18 11:44:00,59.0,58.7,29.45,South,179,0.0,0.3,99,0.02,BKN,,1.49,107.0,WeatherDisplay:10.37,2013-04-18 16:44:00,
2013-04-18 11:49:00,59.0,58.7,29.49,WSW,253,5.8,5.8,99,0.02,BKN,,1.49,56.0,WeatherDisplay:10.37,2013-04-18 16:49:00,
2013-04-18 11:54:00,59.0,58.7,29.48,WSW,253,0.0,0.1,99,0.02,BKN,,1.49,54.0,WeatherDisplay:10.37,2013-04-18 16:54:00,
2013-04-18 11:59:00,59.0,58.7,29.49,WSW,257,4.6,4.6,99,0.02,OVC,,1.49,69.0,WeatherDisplay:10.37,2013-04-18 16:59:00,
2013-04-18 12:04:00,59.0,58.7,29.53,SSW,202,5.8,5.8,99,0.02,BKN,,1.49,51.0,WeatherDisplay:10.37,2013-04-18 17:04:00,
2013-04-18 12:09:00,59.0,58.7,29.49,SW,226,0.0,0.0,99,0.01,BKN,,1.49,109.0,WeatherDisplay:10.37,2013-04-18 17:09:00,
2013-04-18 12:14:00,59.0,58.7,29.46,ESE,109,3.5,3.5,99,0.01,BKN,,1.49,120.0,WeatherDisplay:10.37,2013-04-18 17:14:00,
2013-04-18 12:19:00,59.1,58.8,29.47,SSE,149,0.0,1.4,99,0.01,BKN,,1.49,113.0,WeatherDisplay:10.37,2013-04-18 17:19:00,
2013-04-18 12:24:00,59.4,59.1,29.48,SSE,168,3.5,3.5,99,0.00,BKN,,1.49,111.0,WeatherDisplay:10.37,2013-04-18 17:24:00,
2013-04-18 12:29:00,59.7,59.4,29.47,SSE,157,9.2,9.2,99,0.00,BKN,,1.49,105.0,WeatherDisplay:10.37,2013-04-18 17:29:00,
2013-04-18 12:34:00,60.0,59.7,29.47,SSE,165,9.2,9.2,99,0.00,BKN,,1.49,88.0,WeatherDisplay:10.37,2013-04-18 17:34:00,
2013-04-18 12:39:00,60.2,59.9,29.48,SSW,192,6.9,6.9,99,0.00,BKN,,1.49,76.0,WeatherDisplay:10.37,2013-04-18 17:39:00,
2013-04-18 12:44:00,60.2,59.9,29.49,SSE,160,11.5,11.5,99,0.00,BKN,,1.49,62.0,WeatherDisplay:10.37,2013-04-18 17:44:00,
2013-04-18 12:49:00,60.3,60.0,29.49,South,186,12.7,12.7,99,0.00,BKN,,1.49,69.0,WeatherDisplay:10.37,2013-04-18 17:49:00,
2013-04-18 12:54:00,60.4,60.1,29.48,South,183,9.2,0.0,99,0.00,BKN,,1.49,35.0,WeatherDisplay:10.37,2013-04-18 17:54:00,
2013-04-18 12:59:00,60.4,60.1,29.46,SE,138,3.5,0.0,99,0.00,OVC,,1.49,60.0,WeatherDisplay:10.37,2013-04-18 17:59:00,
2013-04-18 13:04:00,60.5,60.2,29.44,SE,141,2.0,2.0,99,0.00,OVC,,1.49,107.0,WeatherDisplay:10.37,2013-04-18 18:04:00,
2013-04-18 13:09:00,60.5,60.2,29.45,SSE,149,6.0,6.0,99,0.00,BKN,,1.49,165.0,WeatherDisplay:10.37,2013-04-18 18:09:00,
2013-04-18 13:14:00,60.7,60.4,29.45,ESE,121,4.6,4.6,99,0.00,BKN,,1.49,188.0,WeatherDisplay:10.37,2013-04-18 18:14:00,
2013-04-18 13:19:00,60.9,60.6,29.44,SE,146,9.2,9.2,99,0.00,BKN,,1.49,156.0,WeatherDisplay:10.37,2013-04-18 18:19:00,
2013-04-18 13:25:00,61.0,60.7,29.43,SE,141,6.9,9.7,99,0.00,BKN,,1.49,195.0,WeatherDisplay:10.37,2013-04-18 18:25:00,
2013-04-18 13:30:00,61.1,60.8,29.42,SE,137,18.4,18.4,99,0.00,BKN,,1.49,243.0,WeatherDisplay:10.37,2013-04-18 18:30:00,
2013-04-18 13:35:00,61.3,61.0,29.41,SSE,168,9.2,9.2,99,0.00,BKN,,1.49,227.0,WeatherDisplay:10.37,2013-04-18 18:35:00,
2013-04-18 13:40:00,61.5,61.2,29.42,SSE,155,12.7,12.7,99,0.00,BKN,,1.49,197.0,WeatherDisplay:10.37,2013-04-18 18:40:00,
2013-04-18 13:45:00,61.6,61.3,29.42,South,187,11.5,11.5,99,0.00,BKN,,1.49,107.0,WeatherDisplay:10.37,2013-04-18 18:45:00,
2013-04-18 13:50:00,61.6,61.3,29.43,SSE,153,18.4,18.4,99,0.00,BKN,,1.49,105.0,WeatherDisplay:10.37,2013-04-18 18:50:00,
2013-04-18 13:55:00,61.7,61.4,29.42,SE,138,15.0,15.0,99,0.00,BKN,,1.49,95.0,WeatherDisplay:10.37,2013-04-18 18:55:00,
2013-04-18 14:00:00,61.8,61.2,29.43,SSE,153,13.8,13.8,98,0.00,BKN,,1.49,86.0,WeatherDisplay:10.37,2013-04-18 19:00:00,
2013-04-18 14:05:00,61.9,61.3,29.44,South,183,19.6,19.6,98,0.00,BKN,,1.49,76.0,WeatherDisplay:10.37,2013-04-18 19:05:00,
2013-04-18 14:10:00,62.0,61.4,29.44,SSW,200,14.0,14.0,98,0.00,BKN,,1.49,53.0,WeatherDisplay:10.37,2013-04-18 19:10:00,
2013-04-18 14:15:00,62.0,61.4,29.44,SE,138,18.4,18.4,98,0.00,OVC,,1.49,53.0,WeatherDisplay:10.37,2013-04-18 19:15:00,
2013-04-18 14:20:00,62.0,61.4,29.43,South,184,20.7,20.7,98,0.00,BKN,,1.49,125.0,WeatherDisplay:10.37,2013-04-18 19:20:00,
2013-04-18 14:25:00,62.1,61.5,29.42,SSE,165,16.1,16.1,98,0.00,BKN,,1.49,69.0,WeatherDisplay:10.37,2013-04-18 19:25:00,
2013-04-18 14:30:00,62.1,61.5,29.43,South,173,20.7,20.7,98,0.00,BKN,,1.49,163.0,WeatherDisplay:10.37,2013-04-18 19:30:00,
2013-04-18 14:35:00,62.3,61.7,29.42,SSE,148,16.1,16.1,98,0.00,BKN,,1.49,183.0,WeatherDisplay:10.37,2013-04-18 19:35:00,
2013-04-18 14:40:00,62.5,61.6,29.40,SSE,159,18.4,18.4,97,0.00,BKN,,1.49,121.0,WeatherDisplay:10.37,2013-04-18 19:40:00,
2013-04-18 14:45:00,62.7,61.8,29.39,South,174,16.1,16.1,97,0.00,BKN,,1.49,163.0,WeatherDisplay:10.37,2013-04-18 19:45:00,
2013-04-18 14:50:00,62.9,62.0,29.40,SSE,159,29.9,29.9,97,0.00,BKN,,1.49,135.0,WeatherDisplay:10.37,2013-04-18 19:50:00,
2013-04-18 14:55:00,63.1,61.9,29.39,ESE,122,26.5,26.5,96,0.00,BKN,,1.49,163.0,WeatherDisplay:10.37,2013-04-18 19:55:00,
2013-04-18 15:00:00,63.3,62.1,29.37,SSE,159,33.4,33.4,96,0.00,BKN,,1.49,130.0,WeatherDisplay:10.37,2013-04-18 20:00:00,
2013-04-18 15:05:00,63.4,61.9,29.39,SSE,155,23.0,23.0,95,0.00,BKN,,1.49,72.0,WeatherDisplay:10.37,2013-04-18 20:05:00,
2013-04-18 15:10:00,63.5,62.0,29.39,SE,141,16.1,16.1,95,0.00,BKN,,1.49,81.0,WeatherDisplay:10.37,2013-04-18 20:10:00,
2013-04-18 15:15:00,63.5,61.7,29.38,SSE,148,26.5,26.5,94,0.00,BKN,,1.49,104.0,WeatherDisplay:10.37,2013-04-18 20:15:00,
2013-04-18 15:20:00,63.4,61.6,29.39,SE,144,24.2,24.2,94,0.00,BKN,,1.49,60.0,WeatherDisplay:10.37,2013-04-18 20:20:00,
2013-04-18 15:25:00,63.3,61.5,29.38,SE,144,25.3,25.3,94,0.01,RA,,1.50,151.0,WeatherDisplay:10.37,2013-04-18 20:25:00,
2013-04-18 15:30:00,63.1,61.6,29.39,SSE,154,18.4,18.4,95,0.02,RA,,1.51,67.0,WeatherDisplay:10.37,2013-04-18 20:30:00,
2013-04-18 15:35:00,62.9,61.4,29.39,South,171,19.6,19.6,95,0.03,RA,,1.52,46.0,WeatherDisplay:10.37,2013-04-18 20:35:00,
2013-04-18 15:40:00,60.8,58.2,29.42,WSW,252,20.7,20.7,91,0.07,RA,,1.56,63.0,WeatherDisplay:10.37,2013-04-18 20:40:00,
2013-04-18 15:45:00,58.2,55.9,29.43,SW,223,20.7,20.7,92,0.08,RA,,1.57,77.0,WeatherDisplay:10.37,2013-04-18 20:45:00,
2013-04-18 15:50:00,55.9,53.3,29.43,WNW,296,19.6,19.6,91,0.08,RA,,1.57,88.0,WeatherDisplay:10.37,2013-04-18 20:50:00,
2013-04-18 15:55:00,54.5,52.2,29.44,SW,215,26.5,26.5,92,0.08,BKN,,1.57,56.0,WeatherDisplay:10.37,2013-04-18 20:55:00,
2013-04-18 16:00:00,53.7,51.4,29.44,SSW,203,24.2,24.2,92,0.08,BKN,,1.57,51.0,WeatherDisplay:10.37,2013-04-18 21:00:00,
2013-04-18 16:05:00,53.0,50.7,29.45,WSW,254,21.9,21.9,92,0.08,BKN,,1.57,60.0,WeatherDisplay:10.37,2013-04-18 21:05:00,
2013-04-18 16:10:00,52.2,49.9,29.45,West,269,20.7,20.7,92,0.08,BKN,,1.57,58.0,WeatherDisplay:10.37,2013-04-18 21:10:00,
2013-04-18 16:15:00,51.2,49.0,29.46,WSW,247,32.2,32.2,92,0.08,BKN,,1.57,69.0,WeatherDisplay:10.37,2013-04-18 21:15:00,
2013-04-18 16:20:00,50.6,48.4,29.46,WSW,256,17.3,17.3,92,0.08,BKN,,1.57,105.0,WeatherDisplay:10.37,2013-04-18 21:20:00,
2013-04-18 16:25:00,50.3,48.1,29.47,WSW,244,21.9,21.9,92,0.07,BKN,,1.57,49.0,WeatherDisplay:10.37,2013-04-18 21:25:00,
2013-04-18 16:30:00,50.1,47.9,29.48,SW,227,19.6,19.6,92,0.06,BKN,,1.57,76.0,WeatherDisplay:10.37,2013-04-18 21:30:00,
2013-04-18 16:35:00,49.9,47.7,29.47,SW,227,16.1,16.1,92,0.05,BKN,,1.57,60.0,WeatherDisplay:10.37,2013-04-18 21:35:00,
2013-04-18 16:40:00,49.6,47.4,29.47,SW,230,24.2,24.2,92,0.01,BKN,,1.57,88.0,WeatherDisplay:10.37,2013-04-18 21:40:00,
2013-04-18 16:45:00,49.4,47.2,29.47,SW,223,16.1,16.1,92,0.00,BKN,,1.57,113.0,WeatherDisplay:10.37,2013-04-18 21:45:00,
2013-04-18 16:50:00,49.1,46.6,29.48,SSW,192,26.5,26.5,91,0.00,BKN,,1.57,125.0,WeatherDisplay:10.37,2013-04-18 21:50:00,
2013-04-18 16:55:00,48.7,45.9,29.48,WSW,240,23.0,23.0,90,0.00,BKN,,1.57,113.0,WeatherDisplay:10.37,2013-04-18 21:55:00,
2013-04-18 17:00:00,48.4,45.6,29.49,SSW,195,26.5,26.5,90,0.00,BKN,,1.57,105.0,WeatherDisplay:10.37,2013-04-18 22:00:00,
2013-04-18 17:05:00,48.3,45.2,29.50,SW,222,23.0,23.0,89,0.00,BKN,,1.57,155.0,WeatherDisplay:10.37,2013-04-18 22:05:00,
2013-04-18 17:10:00,48.4,45.3,29.49,SSW,211,16.1,16.1,89,0.00,BKN,,1.57,79.0,WeatherDisplay:10.37,2013-04-18 22:10:00,
2013-04-18 17:15:00,48.2,45.1,29.50,SSW,210,25.0,25.0,89,0.00,BKN,,1.57,98.0,WeatherDisplay:10.37,2013-04-18 22:15:00,
2013-04-18 17:20:00,47.8,44.4,29.51,SSW,202,29.9,29.9,88,0.00,BKN,,1.57,165.0,WeatherDisplay:10.37,2013-04-18 22:20:00,
2013-04-18 17:25:00,47.6,43.9,29.51,SW,219,28.8,28.8,87,0.00,BKN,,1.57,199.0,WeatherDisplay:10.37,2013-04-18 22:25:00,
2013-04-18 17:30:00,47.7,44.3,29.51,SSW,203,19.6,19.6,88,0.00,BKN,,1.57,100.0,WeatherDisplay:10.37,2013-04-18 22:30:00,
2013-04-18 17:35:00,47.6,44.2,29.51,WSW,246,24.2,24.2,88,0.00,BKN,,1.57,102.0,WeatherDisplay:10.37,2013-04-18 22:35:00,
2013-04-18 17:40:00,47.2,43.5,29.51,SSW,206,19.6,19.6,87,0.00,BKN,,1.57,67.0,WeatherDisplay:10.37,2013-04-18 22:40:00,
2013-04-18 17:45:00,46.9,43.2,29.51,SW,234,19.6,19.6,87,0.00,BKN,,1.57,58.0,WeatherDisplay:10.37,2013-04-18 22:45:00,
2013-04-18 17:50:00,46.7,43.0,29.51,SW,230,21.9,21.9,87,0.00,BKN,,1.57,47.0,WeatherDisplay:10.37,2013-04-18 22:50:00,
2013-04-18 17:55:00,46.6,43.2,29.51,WSW,240,21.9,21.9,88,0.00,BKN,,1.57,42.0,WeatherDisplay:10.37,2013-04-18 22:55:00,
2013-04-18 18:00:00,46.5,43.1,29.50,SSW,196,20.7,20.7,88,0.00,BKN,,1.57,95.0,WeatherDisplay:10.37,2013-04-18 23:00:00,
2013-04-18 18:05:00,46.4,42.7,29.51,SW,222,35.7,35.7,87,0.00,BKN,,1.57,105.0,WeatherDisplay:10.37,2013-04-18 23:05:00,
2013-04-18 18:10:00,46.4,42.4,29.52,WSW,238,26.5,26.5,86,0.00,BKN,,1.57,72.0,WeatherDisplay:10.37,2013-04-18 23:10:00,
2013-04-18 18:15:00,46.2,41.9,29.53,SW,225,36.8,36.8,85,0.00,BKN,,1.57,86.0,WeatherDisplay:10.37,2013-04-18 23:15:00,
2013-04-18 18:20:00,46.1,41.8,29.52,WSW,244,31.1,31.1,85,0.00,BKN,,1.57,72.0,WeatherDisplay:10.37,2013-04-18 23:20:00,
2013-04-18 18:25:00,46.0,41.7,29.53,SW,236,33.4,33.4,85,0.00,BKN,,1.57,56.0,WeatherDisplay:10.37,2013-04-18 23:25:00,
2013-04-18 18:31:00,45.9,41.6,29.53,SW,217,20.7,20.7,85,0.00,BKN,,1.57,40.0,WeatherDisplay:10.37,2013-04-18 23:31:00,
2013-04-18 18:35:00,45.8,41.2,29.52,WNW,286,24.2,24.2,84,0.00,BKN,,1.57,53.0,WeatherDisplay:10.37,2013-04-18 23:35:00,
2013-04-18 18:41:00,45.7,41.1,29.53,SW,225,20.7,20.7,84,0.00,BKN,,1.57,44.0,WeatherDisplay:10.37,2013-04-18 23:41:00,
2013-04-18 18:46:00,45.7,40.8,29.53,SW,235,24.2,24.2,83,0.00,BKN,,1.57,28.0,WeatherDisplay:10.37,2013-04-18 23:46:00,
2013-04-18 18:51:00,45.6,40.7,29.53,West,267,19.6,19.6,83,0.00,BKN,,1.57,23.0,WeatherDisplay:10.37,2013-04-18 23:51:00,
2013-04-18 18:56:00,45.4,40.2,29.54,WSW,242,19.6,19.6,82,0.00,BKN,,1.57,16.0,WeatherDisplay:10.37,2013-04-18 23:56:00,
2013-04-18 19:01:00,45.2,40.0,29.53,WSW,255,26.5,26.5,82,0.00,BKN,,1.57,12.0,WeatherDisplay:10.37,2013-04-19 00:01:00,
2013-04-18 19:06:00,45.0,40.1,29.54,West,271,19.6,19.6,83,0.00,BKN,,1.57,9.0,WeatherDisplay:10.37,2013-04-19 00:06:00,
2013-04-18 19:11:00,44.7,39.9,29.54,WSW,242,24.2,24.2,83,0.00,OVC,,1.57,7.0,WeatherDisplay:10.37,2013-04-19 00:11:00,
2013-04-18 19:16:00,44.6,40.1,29.55,West,277,19.6,19.6,84,0.00,OVC,,1.57,5.0,WeatherDisplay:10.37,2013-04-19 00:16:00,
2013-04-18 19:21:00,44.5,40.0,29.55,West,263,11.5,11.5,84,0.00,BKN,,1.57,5.0,WeatherDisplay:10.37,2013-04-19 00:21:00,
2013-04-18 19:26:00,44.4,39.9,29.56,West,269,20.7,20.7,84,0.00,BKN,,1.57,5.0,WeatherDisplay:10.37,2013-04-19 00:26:00,
2013-04-18 19:31:00,44.3,39.8,29.57,WSW,250,19.6,19.6,84,0.00,BKN,,1.57,9.0,WeatherDisplay:10.37,2013-04-19 00:31:00,
2013-04-18 19:36:00,44.1,39.6,29.57,SW,236,21.9,21.9,84,0.00,BKN,,1.57,5.0,WeatherDisplay:10.37,2013-04-19 00:36:00,
2013-04-18 19:41:00,44.0,39.5,29.57,SW,230,19.6,19.6,84,0.00,OVC,,1.57,0.0,WeatherDisplay:10.37,2013-04-19 00:41:00,
2013-04-18 19:46:00,43.8,39.3,29.58,SW,215,25.3,25.3,84,0.00,CLR,,1.57,0.0,WeatherDisplay:10.37,2013-04-19 00:46:00,
2013-04-18 19:51:00,43.6,39.4,29.59,SW,233,14.0,14.0,85,0.00,CLR,,1.57,0.0,WeatherDisplay:10.37,2013-04-19 00:51:00,
2013-04-18 19:56:00,43.2,39.3,29.59,WSW,245,23.0,23.0,86,0.00,CLR,,1.57,0.0,WeatherDisplay:10.37,2013-04-19 00:56:00,
2013-04-18 20:01:00,42.8,39.2,29.60,WSW,254,23.0,23.0,87,0.00,CLR,,1.57,0.0,WeatherDisplay:10.37,2013-04-19 01:01:00,
2013-04-18 20:06:00,42.4,39.1,29.61,SW,221,17.3,17.3,88,0.00,CLR,,1.57,0.0,WeatherDisplay:10.37,2013-04-19 01:06:00,
2013-04-18 20:11:00,42.1,38.8,29.62,West,269,18.4,18.4,88,0.01,RA,,1.58,0.0,WeatherDisplay:10.37,2013-04-19 01:11:00,
2013-04-18 20:16:00,41.9,38.9,29.61,SW,216,24.2,24.2,89,0.01,RA,,1.58,0.0,WeatherDisplay:10.37,2013-04-19 01:16:00,
2013-04-18 20:21:00,41.7,38.7,29.61,WSW,245,17.3,17.3,89,0.01,,,1.58,0.0,WeatherDisplay:10.37,2013-04-19 01:21:00,
2013-04-18 20:26:00,41.6,38.9,29.61,WSW,240,19.6,19.6,90,0.01,CLR,,1.58,0.0,WeatherDisplay:10.37,2013-04-19 01:26:00,
2013-04-18 20:31:00,41.5,38.8,29.62,WSW,242,16.1,16.1,90,0.01,CLR,,1.58,0.0,WeatherDisplay:10.37,2013-04-19 01:31:00,
2013-04-18 20:36:00,41.5,38.5,29.62,SW,230,25.3,25.3,89,0.01,CLR,,1.58,0.0,WeatherDisplay:10.37,2013-04-19 01:36:00,
2013-04-18 20:41:00,41.5,38.2,29.62,WSW,253,19.6,19.6,88,0.01,CLR,,1.58,0.0,WeatherDisplay:10.37,2013-04-19 01:41:00,
2013-04-18 20:46:00,41.5,38.2,29.62,WSW,241,18.4,18.4,88,0.01,CLR,,1.58,0.0,WeatherDisplay:10.37,2013-04-19 01:46:00,
2013-04-18 20:51:00,41.3,37.7,29.62,SSW,202,24.2,24.2,87,0.01,CLR,,1.58,0.0,WeatherDisplay:10.37,2013-04-19 01:51:00,
2013-04-18 20:56:00,41.1,37.2,29.62,South,180,21.9,21.9,86,0.01,CLR,,1.58,0.0,WeatherDisplay:10.37,2013-04-19 01:56:00,
2013-04-18 21:01:00,41.1,37.2,29.63,SSW,211,11.5,11.5,86,0.01,CLR,,1.58,0.0,WeatherDisplay:10.37,2013-04-19 02:01:00,
2013-04-18 21:06:00,40.7,36.8,29.63,SSW,193,25.3,25.3,86,0.01,CLR,,1.58,0.0,WeatherDisplay:10.37,2013-04-19 02:06:00,
2013-04-18 21:11:00,40.2,36.3,29.63,West,269,25.3,25.3,86,0.00,CLR,,1.58,0.0,WeatherDisplay:10.37,2013-04-19 02:11:00,
2013-04-18 21:16:00,40.0,36.4,29.63,SW,236,19.6,19.6,87,0.00,CLR,,1.58,0.0,WeatherDisplay:10.37,2013-04-19 02:16:00,
2013-04-18 21:21:00,39.8,36.5,29.63,WSW,248,10.4,10.4,88,0.00,CLR,,1.58,0.0,WeatherDisplay:10.37,2013-04-19 02:21:00,
2013-04-18 21:26:00,39.8,36.5,29.62,WSW,253,16.1,16.1,88,0.00,CLR,,1.58,0.0,WeatherDisplay:10.37,2013-04-19 02:26:00,
2013-04-18 21:31:00,40.0,36.7,29.61,WSW,241,10.4,10.4,88,0.00,CLR,,1.58,0.0,WeatherDisplay:10.37,2013-04-19 02:31:00,
2013-04-18 21:36:00,40.0,36.2,29.61,West,277,18.4,18.4,86,0.00,CLR,,1.58,0.0,WeatherDisplay:10.37,2013-04-19 02:36:00,
2013-04-18 21:41:00,40.2,36.1,29.61,SSW,209,17.3,17.3,85,0.00,CLR,,1.58,0.0,WeatherDisplay:10.37,2013-04-19 02:41:00,
2013-04-18 21:46:00,40.2,35.8,29.61,SW,222,15.0,15.0,84,0.00,CLR,,1.58,0.0,WeatherDisplay:10.37,2013-04-19 02:46:00,
2013-04-18 21:51:00,40.2,35.4,29.62,West,275,21.9,21.9,83,0.00,CLR,,1.58,0.0,WeatherDisplay:10.37,2013-04-19 02:51:00,
2013-04-18 21:56:00,40.2,34.8,29.62,West,273,22.0,22.0,81,0.00,CLR,,1.58,0.0,WeatherDisplay:10.37,2013-04-19 02:56:00,
2013-04-18 22:01:00,40.1,34.4,29.62,SW,232,32.2,32.2,80,0.00,CLR,,1.58,0.0,WeatherDisplay:10.37,2013-04-19 03:01:00,
2013-04-18 22:06:00,40.0,34.3,29.62,SW,222,18.4,18.4,80,0.00,CLR,,1.58,0.0,WeatherDisplay:10.37,2013-04-19 03:06:00,
2013-04-18 22:11:00,40.0,34.3,29.62,West,281,18.4,18.4,80,0.00,CLR,,1.58,0.0,WeatherDisplay:10.37,2013-04-19 03:11:00,
2013-04-18 22:16:00,39.9,34.5,29.62,West,277,21.9,21.9,81,0.00,CLR,,1.58,0.0,WeatherDisplay:10.37,2013-04-19 03:16:00,
2013-04-18 22:21:00,39.7,34.3,29.62,SW,233,19.6,19.6,81,0.00,CLR,,1.58,0.0,WeatherDisplay:10.37,2013-04-19 03:21:00,
2013-04-18 22:26:00,39.7,34.0,29.62,SW,227,21.9,21.9,80,0.00,CLR,,1.58,0.0,WeatherDisplay:10.37,2013-04-19 03:26:00,
2013-04-18 22:31:00,39.7,34.3,29.62,SSW,211,24.2,24.2,81,0.00,CLR,,1.58,0.0,WeatherDisplay:10.37,2013-04-19 03:31:00,
2013-04-18 22:36:00,39.7,34.3,29.62,WSW,249,20.7,20.7,81,0.00,CLR,,1.58,0.0,WeatherDisplay:10.37,2013-04-19 03:36:00,
2013-04-18 22:41:00,39.7,34.3,29.62,WSW,249,11.5,11.5,81,0.00,CLR,,1.58,0.0,WeatherDisplay:10.37,2013-04-19 03:41:00,
2013-04-18 22:46:00,39.6,34.6,29.62,West,273,23.0,23.0,82,0.00,CLR,,1.58,0.0,WeatherDisplay:10.37,2013-04-19 03:46:00,
2013-04-18 22:51:00,39.6,34.6,29.61,WSW,237,16.1,16.1,82,0.00,CLR,,1.58,0.0,WeatherDisplay:10.37,2013-04-19 03:51:00,
2013-04-18 22:56:00,39.6,34.2,29.61,West,263,16.1,16.1,81,0.00,CLR,,1.58,0.0,WeatherDisplay:10.37,2013-04-19 03:56:00,
2013-04-18 23:01:00,39.6,34.6,29.61,West,264,19.6,19.6,82,0.00,CLR,,1.58,0.0,WeatherDisplay:10.37,2013-04-19 04:01:00,
2013-04-18 23:06:00,39.6,34.2,29.60,SSW,208,21.9,21.9,81,0.00,CLR,,1.58,0.0,WeatherDisplay:10.37,2013-04-19 04:06:00,
2013-04-18 23:11:00,39.5,34.5,29.60,WSW,238,19.6,19.6,82,0.00,CLR,,1.58,0.0,WeatherDisplay:10.37,2013-04-19 04:11:00,
2013-04-18 23:16:00,39.5,34.5,29.60,West,267,19.6,19.6,82,0.00,CLR,,1.58,0.0,WeatherDisplay:10.37,2013-04-19 04:16:00,
2013-04-18 23:21:00,39.5,34.5,29.60,West,264,20.7,20.7,82,0.00,CLR,,1.58,0.0,WeatherDisplay:10.37,2013-04-19 04:21:00,
2013-04-18 23:26:00,39.5,34.2,29.59,WSW,252,17.3,17.3,81,0.00,CLR,,1.58,0.0,WeatherDisplay:10.37,2013-04-19 04:26:00,
2013-04-18 23:31:00,39.6,34.2,29.59,SSW,213,21.9,21.9,81,0.00,CLR,,1.58,0.0,WeatherDisplay:10.37,2013-04-19 04:31:00,
2013-04-18 23:36:00,39.5,34.5,29.59,WNW,285,17.3,17.3,82,0.00,CLR,,1.58,0.0,WeatherDisplay:10.37,2013-04-19 04:36:00,
2013-04-18 23:41:00,39.5,34.5,29.59,SW,227,19.6,19.6,82,0.00,CLR,,1.58,0.0,WeatherDisplay:10.37,2013-04-19 04:41:00,
2013-04-18 23:46:00,39.5,34.5,29.59,West,261,18.4,18.4,82,0.00,CLR,,1.58,0.0,WeatherDisplay:10.37,2013-04-19 04:46:00,
2013-04-18 23:51:00,39.5,34.5,29.59,West,273,14.0,14.0,82,0.00,CLR,,1.58,0.0,WeatherDisplay:10.37,2013-04-19 04:51:00,
2013-04-18 23:56:00,39.5,34.2,29.58,WNW,285,17.3,17.3,81,0.00,CLR,,1.58,0.0,WeatherDisplay:10.37,2013-04-19 04:56:00,